createdAt,value
2019-03-17T00:04:56.857Z,13.31
2019-03-17T00:09:59.571Z,13.18
2019-03-17T00:15:05.516Z,13.27
2019-03-17T00:20:07.014Z,13.31
2019-03-17T00:25:10.320Z,13.35
2019-03-17T00:30:13.301Z,13.37
2019-03-17T00:35:16.012Z,13.32
2019-03-17T00:40:18.722Z,13.32
2019-03-17T00:45:21.415Z,13.30
2019-03-17T00:50:24.135Z,13.32
2019-03-17T00:55:26.839Z,13.37
2019-03-17T01:00:30.550Z,13.28
2019-03-17T01:05:33.242Z,13.40
2019-03-17T01:10:35.941Z,13.34
2019-03-17T01:15:38.644Z,13.36
2019-03-17T01:20:41.348Z,13.28
2019-03-17T01:25:44.058Z,13.29
2019-03-17T01:30:46.771Z,13.24
2019-03-17T01:35:49.498Z,13.26
2019-03-17T01:40:52.222Z,13.24
2019-03-17T01:45:54.915Z,13.20
2019-03-17T01:50:57.622Z,13.13
2019-03-17T01:56:00.346Z,13.02
2019-03-17T02:01:03.177Z,12.89
2019-03-17T02:06:05.862Z,12.76
2019-03-17T02:11:08.566Z,12.73
2019-03-17T02:16:11.286Z,12.66
2019-03-17T02:21:13.980Z,12.70
2019-03-17T02:26:16.679Z,12.62
2019-03-17T02:31:19.459Z,12.63
2019-03-17T02:36:22.195Z,12.55
2019-03-17T02:41:24.887Z,12.48
2019-03-17T02:46:27.610Z,12.56
2019-03-17T02:51:30.302Z,12.62
2019-03-17T02:56:32.995Z,12.65
2019-03-17T03:01:35.710Z,12.75
2019-03-17T03:06:38.430Z,12.95
2019-03-17T03:11:41.118Z,12.90
2019-03-17T03:16:43.822Z,13.01
2019-03-17T03:21:46.520Z,12.99
2019-03-17T03:26:49.329Z,13.03
2019-03-17T03:31:52.048Z,13.15
2019-03-17T03:36:54.830Z,13.10
2019-03-17T03:41:57.529Z,13.07
2019-03-17T03:47:00.225Z,13.09
2019-03-17T03:52:02.919Z,13.17
2019-03-17T03:57:05.610Z,13.23
2019-03-17T04:02:08.322Z,13.33
2019-03-17T04:07:11.292Z,13.23
2019-03-17T04:12:14.247Z,13.34
2019-03-17T04:17:17.321Z,13.19
2019-03-17T04:22:20.349Z,13.28
2019-03-17T04:27:23.307Z,13.30
2019-03-17T04:32:26.357Z,13.17
2019-03-17T04:37:29.389Z,13.28
2019-03-17T04:42:32.239Z,13.11
2019-03-17T04:47:35.196Z,13.23
2019-03-17T04:52:38.195Z,13.21
2019-03-17T04:57:41.254Z,13.05
2019-03-17T05:02:44.186Z,12.87
2019-03-17T05:07:46.860Z,12.73
2019-03-17T05:12:49.566Z,12.57
2019-03-17T05:17:52.281Z,12.57
2019-03-17T05:22:54.984Z,12.60
2019-03-17T05:27:57.983Z,12.53
2019-03-17T05:33:00.728Z,12.59
2019-03-17T05:38:03.417Z,12.53
2019-03-17T05:43:06.120Z,12.44
2019-03-17T05:48:08.826Z,12.55
2019-03-17T05:53:11.522Z,12.48
2019-03-17T05:58:14.222Z,12.51
2019-03-17T06:03:16.943Z,12.45
2019-03-17T06:08:21.281Z,12.43
2019-03-17T06:13:24.042Z,12.41
2019-03-17T06:18:26.725Z,12.40
2019-03-17T06:23:29.465Z,12.42
2019-03-17T06:28:32.160Z,12.30
2019-03-17T06:33:34.844Z,12.29
2019-03-17T06:38:37.973Z,12.29
2019-03-17T06:43:40.908Z,12.20
2019-03-17T06:48:43.658Z,12.18
2019-03-17T06:53:55.804Z,12.21
2019-03-17T06:58:51.001Z,12.32
2019-03-17T07:03:53.692Z,12.40
2019-03-17T07:08:56.430Z,12.31
2019-03-17T07:13:59.229Z,12.05
2019-03-17T07:19:01.925Z,12.07
2019-03-17T07:24:04.646Z,12.17
2019-03-17T07:29:07.549Z,12.14
2019-03-17T07:34:11.050Z,12.20
2019-03-17T07:39:13.884Z,12.24
2019-03-17T07:44:16.670Z,12.37
2019-03-17T07:49:20.240Z,12.52
2019-03-17T07:54:29.232Z,12.56
2019-03-17T07:59:42.417Z,12.36
2019-03-17T08:04:49.902Z,12.40
2019-03-17T08:09:56.497Z,12.34
2019-03-17T08:15:01.395Z,12.00
2019-03-17T08:20:07.490Z,11.04
2019-03-17T08:25:12.021Z,10.61
2019-03-17T08:30:16.331Z,10.48
2019-03-17T08:35:20.472Z,10.44
2019-03-17T08:40:24.202Z,10.18
2019-03-17T08:45:28.695Z,10.02
2019-03-17T08:50:31.581Z,9.92
2019-03-17T08:55:34.351Z,10.03
2019-03-17T09:00:37.609Z,10.13
2019-03-17T09:05:40.390Z,10.30
2019-03-17T09:10:43.173Z,10.43
2019-03-17T09:15:45.898Z,10.53
2019-03-17T09:20:48.595Z,10.56
2019-03-17T09:25:51.375Z,10.70
2019-03-17T09:30:54.082Z,10.96
2019-03-17T09:35:56.788Z,11.18
2019-03-17T09:40:59.488Z,11.62
2019-03-17T09:46:02.213Z,11.83
2019-03-17T09:51:04.898Z,11.66
2019-03-17T09:56:07.589Z,11.57
2019-03-17T10:01:10.294Z,11.87
2019-03-17T10:06:13.045Z,12.00
2019-03-17T10:11:15.795Z,11.99
2019-03-17T10:16:18.494Z,11.93
2019-03-17T10:21:21.186Z,12.14
2019-03-17T10:26:23.876Z,12.48
2019-03-17T10:31:26.583Z,12.54
2019-03-17T10:36:29.496Z,12.53
2019-03-17T10:41:32.311Z,12.68
2019-03-17T10:46:35.040Z,12.38
2019-03-17T10:51:37.855Z,12.40
2019-03-17T10:56:40.648Z,12.40
2019-03-17T11:01:43.344Z,12.21
2019-03-17T11:06:46.055Z,12.63
2019-03-17T11:11:48.753Z,12.63
2019-03-17T11:16:51.522Z,12.72
2019-03-17T11:21:54.214Z,12.85
2019-03-17T11:26:56.911Z,12.99
2019-03-17T11:31:59.617Z,12.86
2019-03-17T11:37:02.325Z,12.79
2019-03-17T11:42:05.095Z,12.45
2019-03-17T11:47:07.998Z,12.42
2019-03-17T11:52:10.730Z,12.69
2019-03-17T11:57:13.466Z,12.69
2019-03-17T12:02:26.108Z,12.85
2019-03-17T12:07:20.774Z,12.16
2019-03-17T12:12:23.533Z,10.69
2019-03-17T12:17:26.345Z,10.00
2019-03-17T12:22:29.063Z,9.62
2019-03-17T12:27:31.778Z,9.87
2019-03-17T12:32:34.502Z,10.44
2019-03-17T12:37:37.274Z,11.11
2019-03-17T12:42:40.017Z,11.57
2019-03-17T12:47:43.869Z,12.11
2019-03-17T12:52:46.637Z,12.28
2019-03-17T12:57:49.375Z,12.34
2019-03-17T13:02:52.076Z,12.35
2019-03-17T13:07:55.067Z,12.19
2019-03-17T13:12:57.784Z,12.33
2019-03-17T13:18:00.493Z,12.46
2019-03-17T13:23:03.201Z,12.92
2019-03-17T13:28:06.028Z,12.85
2019-03-17T13:33:08.718Z,12.66
2019-03-17T13:38:11.528Z,12.22
2019-03-17T13:43:14.256Z,11.01
2019-03-17T13:48:16.960Z,9.95
2019-03-17T13:53:19.656Z,10.10
2019-03-17T13:58:22.354Z,10.47
2019-03-17T14:03:25.069Z,10.62
2019-03-17T14:08:27.773Z,10.74
2019-03-17T14:13:30.467Z,10.64
2019-03-17T14:18:33.168Z,10.92
2019-03-17T14:23:35.874Z,11.20
2019-03-17T14:28:38.570Z,11.21
2019-03-17T14:33:41.259Z,10.63
2019-03-17T14:38:43.966Z,9.86
2019-03-17T14:43:46.654Z,9.48
2019-03-17T14:48:49.361Z,9.70
2019-03-17T14:53:52.063Z,9.97
2019-03-17T14:58:54.756Z,10.19
2019-03-17T15:03:57.448Z,10.52
2019-03-17T15:09:00.154Z,10.68
2019-03-17T15:14:03.010Z,11.05
2019-03-17T15:19:05.722Z,11.19
2019-03-17T15:24:08.397Z,11.17
2019-03-17T15:29:11.087Z,11.22
2019-03-17T15:34:13.768Z,11.22
2019-03-17T15:39:16.497Z,10.63
2019-03-17T15:44:19.207Z,10.90
2019-03-17T15:49:21.897Z,11.02
2019-03-17T15:54:24.584Z,11.23
2019-03-17T15:59:27.290Z,11.54
2019-03-17T16:04:30.007Z,11.49
2019-03-17T16:09:32.686Z,11.27
2019-03-17T16:14:35.396Z,11.00
2019-03-17T16:19:38.101Z,10.83
2019-03-17T16:24:40.827Z,10.92
2019-03-17T16:29:43.521Z,11.27
2019-03-17T16:34:46.224Z,11.36
2019-03-17T16:39:48.944Z,11.39
2019-03-17T16:44:51.646Z,11.32
2019-03-17T16:49:54.352Z,11.26
2019-03-17T16:54:57.056Z,11.24
2019-03-17T16:59:59.782Z,10.87
2019-03-17T17:05:02.546Z,10.53
2019-03-17T17:10:06.900Z,10.29
2019-03-17T17:15:19.362Z,10.21
2019-03-17T17:20:24.536Z,10.06
2019-03-17T17:25:27.239Z,9.95
2019-03-17T17:30:29.939Z,9.79
2019-03-17T17:35:32.635Z,9.66
2019-03-17T17:40:35.337Z,9.55
2019-03-17T17:45:38.038Z,9.38
2019-03-17T17:50:40.721Z,9.31
2019-03-17T17:55:43.425Z,9.27
2019-03-17T18:00:46.615Z,9.13
2019-03-17T18:05:49.309Z,9.03
2019-03-17T18:10:52.034Z,9.00
2019-03-17T18:15:54.744Z,8.88
2019-03-17T18:20:57.435Z,8.83
2019-03-17T18:26:00.138Z,8.76
2019-03-17T18:31:02.936Z,8.75
2019-03-17T18:36:05.694Z,8.63
2019-03-17T18:41:08.456Z,8.60
2019-03-17T18:46:11.151Z,8.78
2019-03-17T18:51:13.848Z,8.97
2019-03-17T18:56:16.586Z,9.07
2019-03-17T19:01:19.290Z,8.89
2019-03-17T19:06:21.995Z,8.87
2019-03-17T19:11:24.685Z,8.78
2019-03-17T19:16:27.372Z,8.65
2019-03-17T19:21:30.070Z,8.56
2019-03-17T19:26:33.185Z,8.44
2019-03-17T19:31:36.182Z,8.33
2019-03-17T19:36:39.142Z,8.19
2019-03-17T19:41:41.841Z,8.15
2019-03-17T19:46:44.541Z,8.03
2019-03-17T19:51:47.242Z,8.01
2019-03-17T19:56:50.053Z,7.82
2019-03-17T20:01:52.821Z,8.08
2019-03-17T20:06:56.347Z,8.17
2019-03-17T20:11:59.056Z,8.22
2019-03-17T20:17:01.754Z,8.12
2019-03-17T20:22:04.664Z,8.02
2019-03-17T20:27:07.334Z,7.91
2019-03-17T20:32:10.016Z,7.96
2019-03-17T20:37:12.711Z,7.89
2019-03-17T20:42:15.413Z,7.91
2019-03-17T20:47:18.115Z,7.96
2019-03-17T20:52:20.806Z,8.00
2019-03-17T20:57:23.511Z,7.93
2019-03-17T21:02:26.208Z,7.89
2019-03-17T21:07:28.908Z,7.85
2019-03-17T21:12:31.600Z,7.97
2019-03-17T21:17:34.295Z,7.97
2019-03-17T21:22:37.015Z,7.84
2019-03-17T21:27:39.736Z,7.86
2019-03-17T21:32:42.472Z,8.02
2019-03-17T21:37:45.218Z,8.03
2019-03-17T21:42:48.009Z,8.10
2019-03-17T21:47:50.725Z,8.07
2019-03-17T21:52:53.427Z,7.92
2019-03-17T21:57:56.221Z,7.79
2019-03-17T22:02:58.924Z,7.71
2019-03-17T22:08:01.638Z,7.65
2019-03-17T22:13:04.337Z,7.55
2019-03-17T22:18:07.037Z,7.55
2019-03-17T22:23:09.719Z,7.58
2019-03-17T22:28:12.416Z,7.53
2019-03-17T22:33:15.103Z,7.39
2019-03-17T22:38:17.808Z,7.47
2019-03-17T22:43:20.494Z,7.45
2019-03-17T22:48:23.223Z,7.37
2019-03-17T22:53:25.922Z,7.36
2019-03-17T22:58:28.649Z,7.34
2019-03-17T23:03:31.338Z,7.30
2019-03-17T23:08:34.038Z,7.37
2019-03-17T23:13:36.725Z,7.23
2019-03-17T23:18:39.422Z,7.23
2019-03-17T23:23:42.112Z,7.14
2019-03-17T23:28:44.808Z,7.19
2019-03-17T23:33:47.481Z,7.10
2019-03-17T23:38:50.181Z,7.09
2019-03-17T23:43:52.901Z,7.06
2019-03-17T23:48:55.640Z,6.94
2019-03-17T23:53:58.374Z,6.95
2019-03-17T23:59:01.085Z,6.91
